sensor_id;sensor_type;location;lat;lon;timestamp;temperature;humidity
29203;DHT22;16245;51.170;4.884;2023-02-04T00:00:50;9.70;99.90
29203;DHT22;16245;51.170;4.884;2023-02-04T00:03:16;9.70;99.90
29203;DHT22;16245;51.170;4.884;2023-02-04T00:05:42;9.70;99.90
29203;DHT22;16245;51.170;4.884;2023-02-04T00:08:08;9.60;99.90
29203;DHT22;16245;51.170;4.884;2023-02-04T00:10:35;9.60;99.90
29203;DHT22;16245;51.170;4.884;2023-02-04T00:13:01;9.60;99.90
29203;DHT22;16245;51.170;4.884;2023-02-04T00:15:27;9.60;99.90
29203;DHT22;16245;51.170;4.884;2023-02-04T00:17:53;9.60;99.90
29203;DHT22;16245;51.170;4.884;2023-02-04T00:20:18;9.60;99.90
29203;DHT22;16245;51.170;4.884;2023-02-04T00:22:44;9.50;99.90
29203;DHT22;16245;51.170;4.884;2023-02-04T00:25:10;9.60;99.90
29203;DHT22;16245;51.170;4.884;2023-02-04T00:27:37;9.60;99.90
29203;DHT22;16245;51.170;4.884;2023-02-04T00:30:04;9.60;99.90
29203;DHT22;16245;51.170;4.884;2023-02-04T00:32:30;9.50;99.90
29203;DHT22;16245;51.170;4.884;2023-02-04T00:34:55;9.60;99.90
29203;DHT22;16245;51.170;4.884;2023-02-04T00:37:21;9.50;99.90
29203;DHT22;16245;51.170;4.884;2023-02-04T00:39:47;9.50;99.90
29203;DHT22;16245;51.170;4.884;2023-02-04T00:42:13;9.60;99.90
29203;DHT22;16245;51.170;4.884;2023-02-04T00:44:38;9.60;99.90
29203;DHT22;16245;51.170;4.884;2023-02-04T00:47:04;9.60;99.90
29203;DHT22;16245;51.170;4.884;2023-02-04T00:49:30;9.60;99.90
29203;DHT22;16245;51.170;4.884;2023-02-04T00:51:56;9.50;99.90
29203;DHT22;16245;51.170;4.884;2023-02-04T00:54:21;9.40;99.90
29203;DHT22;16245;51.170;4.884;2023-02-04T00:56:47;9.40;99.90
29203;DHT22;16245;51.170;4.884;2023-02-04T00:59:13;9.40;99.90
29203;DHT22;16245;51.170;4.884;2023-02-04T01:01:38;9.40;99.90
29203;DHT22;16245;51.170;4.884;2023-02-04T01:04:04;9.50;99.90
29203;DHT22;16245;51.170;4.884;2023-02-04T01:06:30;9.60;99.90
29203;DHT22;16245;51.170;4.884;2023-02-04T01:08:56;9.50;99.90
29203;DHT22;16245;51.170;4.884;2023-02-04T01:11:21;9.50;99.90
29203;DHT22;16245;51.170;4.884;2023-02-04T01:13:47;9.40;99.90
29203;DHT22;16245;51.170;4.884;2023-02-04T01:16:13;9.50;99.90
29203;DHT22;16245;51.170;4.884;2023-02-04T01:18:40;9.40;99.90
29203;DHT22;16245;51.170;4.884;2023-02-04T01:21:05;9.50;99.90
29203;DHT22;16245;51.170;4.884;2023-02-04T01:23:31;9.50;99.90
29203;DHT22;16245;51.170;4.884;2023-02-04T01:25:57;9.50;99.90
29203;DHT22;16245;51.170;4.884;2023-02-04T01:28:23;9.50;99.90
29203;DHT22;16245;51.170;4.884;2023-02-04T01:30:48;9.40;99.90
29203;DHT22;16245;51.170;4.884;2023-02-04T01:33:14;9.40;99.90
29203;DHT22;16245;51.170;4.884;2023-02-04T01:35:40;9.40;99.90
29203;DHT22;16245;51.170;4.884;2023-02-04T01:38:05;9.50;99.90
29203;DHT22;16245;51.170;4.884;2023-02-04T01:40:31;9.50;99.90
29203;DHT22;16245;51.170;4.884;2023-02-04T01:42:57;9.50;99.90
29203;DHT22;16245;51.170;4.884;2023-02-04T01:45:23;9.60;99.90
29203;DHT22;16245;51.170;4.884;2023-02-04T01:47:48;9.50;99.90
29203;DHT22;16245;51.170;4.884;2023-02-04T01:50:16;9.50;99.90
29203;DHT22;16245;51.170;4.884;2023-02-04T01:52:43;9.50;99.90
29203;DHT22;16245;51.170;4.884;2023-02-04T01:55:18;9.50;99.90
29203;DHT22;16245;51.170;4.884;2023-02-04T01:57:46;9.60;99.90
29203;DHT22;16245;51.170;4.884;2023-02-04T02:00:23;9.70;99.90
29203;DHT22;16245;51.170;4.884;2023-02-04T02:02:50;9.70;99.90
29203;DHT22;16245;51.170;4.884;2023-02-04T02:05:27;9.60;99.90
29203;DHT22;16245;51.170;4.884;2023-02-04T02:07:57;9.50;99.90
29203;DHT22;16245;51.170;4.884;2023-02-04T02:10:24;9.50;99.90
29203;DHT22;16245;51.170;4.884;2023-02-04T02:12:50;9.40;99.90
29203;DHT22;16245;51.170;4.884;2023-02-04T02:15:17;9.40;99.90
29203;DHT22;16245;51.170;4.884;2023-02-04T02:17:43;9.40;99.90
29203;DHT22;16245;51.170;4.884;2023-02-04T02:20:13;9.50;99.90
29203;DHT22;16245;51.170;4.884;2023-02-04T02:23:02;9.40;99.90
29203;DHT22;16245;51.170;4.884;2023-02-04T02:25:28;9.50;99.90
29203;DHT22;16245;51.170;4.884;2023-02-04T02:27:54;9.60;99.90
29203;DHT22;16245;51.170;4.884;2023-02-04T02:30:22;9.60;99.90
29203;DHT22;16245;51.170;4.884;2023-02-04T02:32:48;9.70;99.90
29203;DHT22;16245;51.170;4.884;2023-02-04T02:35:16;9.60;99.90
29203;DHT22;16245;51.170;4.884;2023-02-04T02:37:42;9.50;99.90
29203;DHT22;16245;51.170;4.884;2023-02-04T02:40:08;9.30;99.90
29203;DHT22;16245;51.170;4.884;2023-02-04T02:42:34;9.20;99.90
29203;DHT22;16245;51.170;4.884;2023-02-04T02:45:04;9.20;99.90
29203;DHT22;16245;51.170;4.884;2023-02-04T02:47:31;9.20;99.90
29203;DHT22;16245;51.170;4.884;2023-02-04T02:49:57;9.30;99.90
29203;DHT22;16245;51.170;4.884;2023-02-04T02:52:22;9.30;99.90
29203;DHT22;16245;51.170;4.884;2023-02-04T02:54:48;9.30;99.90
29203;DHT22;16245;51.170;4.884;2023-02-04T02:57:23;9.40;99.90
29203;DHT22;16245;51.170;4.884;2023-02-04T02:59:49;9.50;99.90
29203;DHT22;16245;51.170;4.884;2023-02-04T03:02:20;9.30;99.90
29203;DHT22;16245;51.170;4.884;2023-02-04T03:04:54;9.30;99.90
29203;DHT22;16245;51.170;4.884;2023-02-04T03:07:21;9.20;99.90
29203;DHT22;16245;51.170;4.884;2023-02-04T03:09:47;9.20;99.90
29203;DHT22;16245;51.170;4.884;2023-02-04T03:12:14;9.20;99.90
29203;DHT22;16245;51.170;4.884;2023-02-04T03:14:40;9.10;99.90
29203;DHT22;16245;51.170;4.884;2023-02-04T03:17:07;9.10;99.90
29203;DHT22;16245;51.170;4.884;2023-02-04T03:19:33;9.30;99.90
29203;DHT22;16245;51.170;4.884;2023-02-04T03:22:01;9.20;99.90
29203;DHT22;16245;51.170;4.884;2023-02-04T03:24:28;9.20;99.90
29203;DHT22;16245;51.170;4.884;2023-02-04T03:26:54;9.20;99.90
29203;DHT22;16245;51.170;4.884;2023-02-04T03:29:20;9.20;99.90
29203;DHT22;16245;51.170;4.884;2023-02-04T03:31:45;9.20;99.90
29203;DHT22;16245;51.170;4.884;2023-02-04T03:34:11;9.20;99.90
29203;DHT22;16245;51.170;4.884;2023-02-04T03:36:37;9.20;99.90
29203;DHT22;16245;51.170;4.884;2023-02-04T03:39:03;9.10;99.90
29203;DHT22;16245;51.170;4.884;2023-02-04T03:41:29;9.20;99.90
29203;DHT22;16245;51.170;4.884;2023-02-04T03:43:54;9.20;99.90
29203;DHT22;16245;51.170;4.884;2023-02-04T03:46:20;9.20;99.90
29203;DHT22;16245;51.170;4.884;2023-02-04T03:48:48;9.10;99.90
29203;DHT22;16245;51.170;4.884;2023-02-04T03:51:13;9.10;99.90
29203;DHT22;16245;51.170;4.884;2023-02-04T03:53:39;9.10;99.90
29203;DHT22;16245;51.170;4.884;2023-02-04T03:56:05;9.10;99.90
29203;DHT22;16245;51.170;4.884;2023-02-04T03:58:31;9.10;99.90
29203;DHT22;16245;51.170;4.884;2023-02-04T04:00:56;9.10;99.90
29203;DHT22;16245;51.170;4.884;2023-02-04T04:03:22;9.00;99.90
29203;DHT22;16245;51.170;4.884;2023-02-04T04:05:48;8.90;99.90
29203;DHT22;16245;51.170;4.884;2023-02-04T04:08:13;9.00;99.90
29203;DHT22;16245;51.170;4.884;2023-02-04T04:10:39;9.00;99.90
29203;DHT22;16245;51.170;4.884;2023-02-04T04:13:05;9.00;99.90
29203;DHT22;16245;51.170;4.884;2023-02-04T04:15:31;9.10;99.90
29203;DHT22;16245;51.170;4.884;2023-02-04T04:17:56;9.20;99.90
29203;DHT22;16245;51.170;4.884;2023-02-04T04:20:22;9.10;99.90
29203;DHT22;16245;51.170;4.884;2023-02-04T04:22:50;9.10;99.90
29203;DHT22;16245;51.170;4.884;2023-02-04T04:25:16;9.00;99.90
29203;DHT22;16245;51.170;4.884;2023-02-04T04:27:41;9.00;99.90
29203;DHT22;16245;51.170;4.884;2023-02-04T04:30:08;9.00;99.90
29203;DHT22;16245;51.170;4.884;2023-02-04T04:32:33;8.90;99.90
29203;DHT22;16245;51.170;4.884;2023-02-04T04:34:59;8.90;99.90
29203;DHT22;16245;51.170;4.884;2023-02-04T04:37:25;8.80;99.90
29203;DHT22;16245;51.170;4.884;2023-02-04T04:39:50;8.80;99.90
29203;DHT22;16245;51.170;4.884;2023-02-04T04:42:16;8.70;99.90
29203;DHT22;16245;51.170;4.884;2023-02-04T04:44:42;8.70;99.90
29203;DHT22;16245;51.170;4.884;2023-02-04T04:47:07;8.80;99.90
29203;DHT22;16245;51.170;4.884;2023-02-04T04:49:33;9.00;99.90
29203;DHT22;16245;51.170;4.884;2023-02-04T04:51:58;8.90;99.90
29203;DHT22;16245;51.170;4.884;2023-02-04T04:54:24;8.80;99.90
29203;DHT22;16245;51.170;4.884;2023-02-04T04:56:50;8.70;99.90
29203;DHT22;16245;51.170;4.884;2023-02-04T04:59:16;8.70;99.90
29203;DHT22;16245;51.170;4.884;2023-02-04T05:01:41;8.80;99.90
29203;DHT22;16245;51.170;4.884;2023-02-04T05:04:07;8.70;99.90
29203;DHT22;16245;51.170;4.884;2023-02-04T05:06:33;8.80;99.90
29203;DHT22;16245;51.170;4.884;2023-02-04T05:08:58;8.80;99.90
29203;DHT22;16245;51.170;4.884;2023-02-04T05:11:24;8.70;99.90
29203;DHT22;16245;51.170;4.884;2023-02-04T05:13:49;8.70;99.90
29203;DHT22;16245;51.170;4.884;2023-02-04T05:16:15;8.80;99.90
29203;DHT22;16245;51.170;4.884;2023-02-04T05:18:42;8.80;99.90
29203;DHT22;16245;51.170;4.884;2023-02-04T05:21:08;8.80;99.90
29203;DHT22;16245;51.170;4.884;2023-02-04T05:23:34;8.90;99.90
29203;DHT22;16245;51.170;4.884;2023-02-04T05:26:00;8.90;99.90
29203;DHT22;16245;51.170;4.884;2023-02-04T05:28:25;8.90;99.90
29203;DHT22;16245;51.170;4.884;2023-02-04T05:30:51;8.90;99.90
29203;DHT22;16245;51.170;4.884;2023-02-04T05:33:17;8.90;99.90
29203;DHT22;16245;51.170;4.884;2023-02-04T05:35:42;8.80;99.90
29203;DHT22;16245;51.170;4.884;2023-02-04T05:38:08;8.70;99.90
29203;DHT22;16245;51.170;4.884;2023-02-04T05:40:34;8.50;99.90
29203;DHT22;16245;51.170;4.884;2023-02-04T05:42:59;8.40;99.90
29203;DHT22;16245;51.170;4.884;2023-02-04T05:45:25;8.40;99.90
29203;DHT22;16245;51.170;4.884;2023-02-04T05:47:51;8.40;99.90
29203;DHT22;16245;51.170;4.884;2023-02-04T05:50:17;8.40;99.90
29203;DHT22;16245;51.170;4.884;2023-02-04T05:52:43;8.30;99.90
29203;DHT22;16245;51.170;4.884;2023-02-04T05:55:10;8.40;99.90
29203;DHT22;16245;51.170;4.884;2023-02-04T05:57:36;8.30;99.90
29203;DHT22;16245;51.170;4.884;2023-02-04T06:00:03;8.30;99.90
29203;DHT22;16245;51.170;4.884;2023-02-04T06:02:28;8.40;99.90
29203;DHT22;16245;51.170;4.884;2023-02-04T06:04:54;8.40;99.90
29203;DHT22;16245;51.170;4.884;2023-02-04T06:07:20;8.40;99.90
29203;DHT22;16245;51.170;4.884;2023-02-04T06:09:45;8.40;99.90
29203;DHT22;16245;51.170;4.884;2023-02-04T06:12:11;8.40;99.90
29203;DHT22;16245;51.170;4.884;2023-02-04T06:14:37;8.40;99.90
29203;DHT22;16245;51.170;4.884;2023-02-04T06:17:02;8.40;99.90
29203;DHT22;16245;51.170;4.884;2023-02-04T06:19:28;8.50;99.90
29203;DHT22;16245;51.170;4.884;2023-02-04T06:21:54;8.60;99.90
29203;DHT22;16245;51.170;4.884;2023-02-04T06:24:19;8.60;99.90
29203;DHT22;16245;51.170;4.884;2023-02-04T06:26:45;8.60;99.90
29203;DHT22;16245;51.170;4.884;2023-02-04T06:29:10;8.60;99.90
29203;DHT22;16245;51.170;4.884;2023-02-04T06:31:36;8.70;99.90
29203;DHT22;16245;51.170;4.884;2023-02-04T06:34:03;8.80;99.90
29203;DHT22;16245;51.170;4.884;2023-02-04T06:36:29;8.80;99.90
29203;DHT22;16245;51.170;4.884;2023-02-04T06:38:55;8.80;99.90
29203;DHT22;16245;51.170;4.884;2023-02-04T06:41:21;8.80;99.90
29203;DHT22;16245;51.170;4.884;2023-02-04T06:43:47;8.80;99.90
29203;DHT22;16245;51.170;4.884;2023-02-04T06:46:13;8.70;99.90
29203;DHT22;16245;51.170;4.884;2023-02-04T06:48:38;8.70;99.90
29203;DHT22;16245;51.170;4.884;2023-02-04T06:51:04;8.80;99.90
29203;DHT22;16245;51.170;4.884;2023-02-04T06:53:30;8.90;99.90
29203;DHT22;16245;51.170;4.884;2023-02-04T06:55:55;8.80;99.90
29203;DHT22;16245;51.170;4.884;2023-02-04T06:58:21;8.70;99.90
29203;DHT22;16245;51.170;4.884;2023-02-04T07:00:47;8.70;99.90
29203;DHT22;16245;51.170;4.884;2023-02-04T07:03:12;8.70;99.90
29203;DHT22;16245;51.170;4.884;2023-02-04T07:05:38;8.70;99.90
29203;DHT22;16245;51.170;4.884;2023-02-04T07:08:04;8.70;99.90
29203;DHT22;16245;51.170;4.884;2023-02-04T07:10:29;8.70;99.90
29203;DHT22;16245;51.170;4.884;2023-02-04T07:12:56;8.80;99.90
29203;DHT22;16245;51.170;4.884;2023-02-04T07:15:22;8.90;99.90
29203;DHT22;16245;51.170;4.884;2023-02-04T07:17:48;8.80;99.90
29203;DHT22;16245;51.170;4.884;2023-02-04T07:20:14;8.90;99.90
29203;DHT22;16245;51.170;4.884;2023-02-04T07:22:40;8.70;99.90
29203;DHT22;16245;51.170;4.884;2023-02-04T07:25:07;8.70;99.90
29203;DHT22;16245;51.170;4.884;2023-02-04T07:27:33;8.90;99.90
29203;DHT22;16245;51.170;4.884;2023-02-04T07:29:58;8.80;99.90
29203;DHT22;16245;51.170;4.884;2023-02-04T07:32:24;8.80;99.90
29203;DHT22;16245;51.170;4.884;2023-02-04T07:34:52;8.90;99.90
29203;DHT22;16245;51.170;4.884;2023-02-04T07:37:18;8.80;99.90
29203;DHT22;16245;51.170;4.884;2023-02-04T07:39:45;8.70;99.90
29203;DHT22;16245;51.170;4.884;2023-02-04T07:42:10;8.70;99.90
29203;DHT22;16245;51.170;4.884;2023-02-04T07:44:36;8.70;99.90
29203;DHT22;16245;51.170;4.884;2023-02-04T07:47:02;8.70;99.90
29203;DHT22;16245;51.170;4.884;2023-02-04T07:49:28;8.70;99.90
29203;DHT22;16245;51.170;4.884;2023-02-04T07:51:53;8.70;99.90
29203;DHT22;16245;51.170;4.884;2023-02-04T07:54:19;8.70;99.90
29203;DHT22;16245;51.170;4.884;2023-02-04T07:56:44;8.70;99.90
29203;DHT22;16245;51.170;4.884;2023-02-04T07:59:10;8.70;99.90
29203;DHT22;16245;51.170;4.884;2023-02-04T08:01:36;8.90;99.90
29203;DHT22;16245;51.170;4.884;2023-02-04T08:04:01;9.00;99.90
29203;DHT22;16245;51.170;4.884;2023-02-04T08:06:27;9.00;99.90
29203;DHT22;16245;51.170;4.884;2023-02-04T08:08:53;9.00;99.90
29203;DHT22;16245;51.170;4.884;2023-02-04T08:11:19;9.00;99.90
29203;DHT22;16245;51.170;4.884;2023-02-04T08:13:44;8.90;99.90
29203;DHT22;16245;51.170;4.884;2023-02-04T08:16:10;8.80;99.90
29203;DHT22;16245;51.170;4.884;2023-02-04T08:18:36;8.80;99.90
29203;DHT22;16245;51.170;4.884;2023-02-04T08:21:01;8.70;99.90
29203;DHT22;16245;51.170;4.884;2023-02-04T08:23:29;8.70;99.90
29203;DHT22;16245;51.170;4.884;2023-02-04T08:25:55;8.80;99.90
29203;DHT22;16245;51.170;4.884;2023-02-04T08:28:20;8.90;99.90
29203;DHT22;16245;51.170;4.884;2023-02-04T08:30:46;8.90;99.90
29203;DHT22;16245;51.170;4.884;2023-02-04T08:33:12;9.00;99.90
29203;DHT22;16245;51.170;4.884;2023-02-04T08:35:37;9.00;99.90
29203;DHT22;16245;51.170;4.884;2023-02-04T08:38:03;9.10;99.90
29203;DHT22;16245;51.170;4.884;2023-02-04T08:40:28;9.20;99.90
29203;DHT22;16245;51.170;4.884;2023-02-04T08:42:54;9.30;99.90
29203;DHT22;16245;51.170;4.884;2023-02-04T08:45:20;9.30;99.90
29203;DHT22;16245;51.170;4.884;2023-02-04T08:47:45;9.40;99.90
29203;DHT22;16245;51.170;4.884;2023-02-04T08:50:11;9.50;99.90
29203;DHT22;16245;51.170;4.884;2023-02-04T08:52:37;9.50;99.90
29203;DHT22;16245;51.170;4.884;2023-02-04T08:55:03;9.50;99.90
29203;DHT22;16245;51.170;4.884;2023-02-04T08:57:29;9.60;99.90
29203;DHT22;16245;51.170;4.884;2023-02-04T08:59:55;9.50;99.90
29203;DHT22;16245;51.170;4.884;2023-02-04T09:02:21;9.50;99.90
29203;DHT22;16245;51.170;4.884;2023-02-04T09:04:46;9.50;99.90
29203;DHT22;16245;51.170;4.884;2023-02-04T09:07:12;9.60;99.90
29203;DHT22;16245;51.170;4.884;2023-02-04T09:09:37;9.70;99.90
29203;DHT22;16245;51.170;4.884;2023-02-04T09:12:03;9.80;99.90
29203;DHT22;16245;51.170;4.884;2023-02-04T09:14:29;10.10;99.90
29203;DHT22;16245;51.170;4.884;2023-02-04T09:16:54;10.40;99.90
29203;DHT22;16245;51.170;4.884;2023-02-04T09:19:20;10.50;99.90
29203;DHT22;16245;51.170;4.884;2023-02-04T09:21:53;10.30;99.90
29203;DHT22;16245;51.170;4.884;2023-02-04T09:24:19;10.30;99.90
29203;DHT22;16245;51.170;4.884;2023-02-04T09:26:48;10.40;99.90
29203;DHT22;16245;51.170;4.884;2023-02-04T09:29:14;10.50;99.90
29203;DHT22;16245;51.170;4.884;2023-02-04T09:31:39;10.50;99.90
29203;DHT22;16245;51.170;4.884;2023-02-04T09:34:06;10.60;99.90
29203;DHT22;16245;51.170;4.884;2023-02-04T09:36:32;10.70;99.90
29203;DHT22;16245;51.170;4.884;2023-02-04T09:39:03;10.70;99.90
29203;DHT22;16245;51.170;4.884;2023-02-04T09:41:30;10.80;99.90
29203;DHT22;16245;51.170;4.884;2023-02-04T09:43:57;10.80;99.90
29203;DHT22;16245;51.170;4.884;2023-02-04T09:46:24;10.90;99.90
29203;DHT22;16245;51.170;4.884;2023-02-04T09:48:53;11.00;99.90
29203;DHT22;16245;51.170;4.884;2023-02-04T09:51:25;11.00;99.90
29203;DHT22;16245;51.170;4.884;2023-02-04T09:53:52;11.00;99.90
29203;DHT22;16245;51.170;4.884;2023-02-04T09:56:19;11.00;99.90
29203;DHT22;16245;51.170;4.884;2023-02-04T09:58:45;11.00;99.90
29203;DHT22;16245;51.170;4.884;2023-02-04T10:01:17;11.10;99.90
29203;DHT22;16245;51.170;4.884;2023-02-04T10:03:44;11.10;99.90
29203;DHT22;16245;51.170;4.884;2023-02-04T10:06:19;11.20;99.90
29203;DHT22;16245;51.170;4.884;2023-02-04T10:08:47;11.20;99.90
29203;DHT22;16245;51.170;4.884;2023-02-04T10:11:14;11.10;99.90
29203;DHT22;16245;51.170;4.884;2023-02-04T10:13:46;11.20;99.90
29203;DHT22;16245;51.170;4.884;2023-02-04T10:16:21;11.20;99.90
29203;DHT22;16245;51.170;4.884;2023-02-04T10:18:48;11.20;99.90
29203;DHT22;16245;51.170;4.884;2023-02-04T10:21:19;11.20;99.90
29203;DHT22;16245;51.170;4.884;2023-02-04T10:23:51;11.20;99.90
29203;DHT22;16245;51.170;4.884;2023-02-04T10:26:20;11.20;99.90
29203;DHT22;16245;51.170;4.884;2023-02-04T10:28:46;11.20;99.90
29203;DHT22;16245;51.170;4.884;2023-02-04T10:31:29;11.20;99.90
29203;DHT22;16245;51.170;4.884;2023-02-04T10:34:04;11.20;99.90
29203;DHT22;16245;51.170;4.884;2023-02-04T10:36:30;11.20;99.90
29203;DHT22;16245;51.170;4.884;2023-02-04T10:41:36;11.30;99.90
29203;DHT22;16245;51.170;4.884;2023-02-04T10:44:10;11.30;99.90
29203;DHT22;16245;51.170;4.884;2023-02-04T10:46:36;11.40;99.90
29203;DHT22;16245;51.170;4.884;2023-02-04T10:49:22;11.40;99.90
29203;DHT22;16245;51.170;4.884;2023-02-04T10:51:50;11.40;99.90
29203;DHT22;16245;51.170;4.884;2023-02-04T10:54:22;11.50;99.90
29203;DHT22;16245;51.170;4.884;2023-02-04T10:59:43;11.40;99.90
29203;DHT22;16245;51.170;4.884;2023-02-04T11:05:16;11.40;99.90
29203;DHT22;16245;51.170;4.884;2023-02-04T11:07:44;11.40;99.90
29203;DHT22;16245;51.170;4.884;2023-02-04T11:10:16;11.30;99.90
29203;DHT22;16245;51.170;4.884;2023-02-04T11:15:40;11.30;99.90
29203;DHT22;16245;51.170;4.884;2023-02-04T11:18:24;11.30;99.90
29203;DHT22;16245;51.170;4.884;2023-02-04T11:20:53;11.40;99.90
29203;DHT22;16245;51.170;4.884;2023-02-04T11:26:09;11.30;99.90
29203;DHT22;16245;51.170;4.884;2023-02-04T11:33:47;11.20;99.90
29203;DHT22;16245;51.170;4.884;2023-02-04T11:36:15;11.30;99.90
29203;DHT22;16245;51.170;4.884;2023-02-04T11:38:48;11.20;99.90
29203;DHT22;16245;51.170;4.884;2023-02-04T11:41:25;11.20;99.90
29203;DHT22;16245;51.170;4.884;2023-02-04T11:43:53;11.10;99.90
29203;DHT22;16245;51.170;4.884;2023-02-04T11:46:19;11.00;99.90
29203;DHT22;16245;51.170;4.884;2023-02-04T11:48:45;11.00;99.90
29203;DHT22;16245;51.170;4.884;2023-02-04T11:51:14;11.00;99.90
29203;DHT22;16245;51.170;4.884;2023-02-04T11:53:40;11.00;99.90
29203;DHT22;16245;51.170;4.884;2023-02-04T11:56:06;11.00;99.90
29203;DHT22;16245;51.170;4.884;2023-02-04T11:58:39;11.10;99.90
29203;DHT22;16245;51.170;4.884;2023-02-04T12:01:18;11.00;99.90
29203;DHT22;16245;51.170;4.884;2023-02-04T12:03:47;11.00;99.90
29203;DHT22;16245;51.170;4.884;2023-02-04T12:06:21;11.00;99.90
29203;DHT22;16245;51.170;4.884;2023-02-04T12:08:47;11.00;99.90
29203;DHT22;16245;51.170;4.884;2023-02-04T12:11:25;10.80;99.90
29203;DHT22;16245;51.170;4.884;2023-02-04T12:13:56;10.60;99.90
29203;DHT22;16245;51.170;4.884;2023-02-04T12:16:22;10.60;99.90
29203;DHT22;16245;51.170;4.884;2023-02-04T12:18:48;10.50;99.90
29203;DHT22;16245;51.170;4.884;2023-02-04T12:21:14;10.50;99.90
29203;DHT22;16245;51.170;4.884;2023-02-04T12:23:40;10.60;99.90
29203;DHT22;16245;51.170;4.884;2023-02-04T12:26:07;10.70;99.90
29203;DHT22;16245;51.170;4.884;2023-02-04T12:28:33;10.80;99.90
29203;DHT22;16245;51.170;4.884;2023-02-04T12:30:58;10.90;99.90
29203;DHT22;16245;51.170;4.884;2023-02-04T12:33:24;11.00;99.90
29203;DHT22;16245;51.170;4.884;2023-02-04T12:35:50;11.10;99.90
29203;DHT22;16245;51.170;4.884;2023-02-04T12:38:16;11.20;99.90
29203;DHT22;16245;51.170;4.884;2023-02-04T12:40:42;11.30;99.90
29203;DHT22;16245;51.170;4.884;2023-02-04T12:43:07;11.30;99.90
29203;DHT22;16245;51.170;4.884;2023-02-04T12:45:33;11.40;99.90
29203;DHT22;16245;51.170;4.884;2023-02-04T12:47:59;11.50;99.90
29203;DHT22;16245;51.170;4.884;2023-02-04T12:50:25;11.40;99.90
29203;DHT22;16245;51.170;4.884;2023-02-04T12:52:55;11.40;99.90
29203;DHT22;16245;51.170;4.884;2023-02-04T12:55:23;11.40;99.90
29203;DHT22;16245;51.170;4.884;2023-02-04T12:57:49;11.30;99.90
29203;DHT22;16245;51.170;4.884;2023-02-04T13:00:16;11.30;99.90
29203;DHT22;16245;51.170;4.884;2023-02-04T13:02:45;11.20;99.90
29203;DHT22;16245;51.170;4.884;2023-02-04T13:05:12;11.30;99.90
29203;DHT22;16245;51.170;4.884;2023-02-04T13:07:39;11.20;99.90
29203;DHT22;16245;51.170;4.884;2023-02-04T13:10:06;11.00;99.90
29203;DHT22;16245;51.170;4.884;2023-02-04T13:12:31;11.00;99.90
29203;DHT22;16245;51.170;4.884;2023-02-04T13:14:57;10.80;99.90
29203;DHT22;16245;51.170;4.884;2023-02-04T13:17:23;10.80;99.90
29203;DHT22;16245;51.170;4.884;2023-02-04T13:19:49;11.00;99.90
29203;DHT22;16245;51.170;4.884;2023-02-04T13:22:15;10.90;99.90
29203;DHT22;16245;51.170;4.884;2023-02-04T13:24:40;10.90;99.90
29203;DHT22;16245;51.170;4.884;2023-02-04T13:27:06;11.00;99.90
29203;DHT22;16245;51.170;4.884;2023-02-04T13:29:32;11.00;99.90
29203;DHT22;16245;51.170;4.884;2023-02-04T13:31:57;11.20;99.90
29203;DHT22;16245;51.170;4.884;2023-02-04T13:34:23;11.30;99.90
29203;DHT22;16245;51.170;4.884;2023-02-04T13:36:49;11.30;99.90
29203;DHT22;16245;51.170;4.884;2023-02-04T13:39:14;11.20;99.90
29203;DHT22;16245;51.170;4.884;2023-02-04T13:41:40;11.20;99.90
29203;DHT22;16245;51.170;4.884;2023-02-04T13:44:06;11.20;99.90
29203;DHT22;16245;51.170;4.884;2023-02-04T13:46:32;11.20;99.90
29203;DHT22;16245;51.170;4.884;2023-02-04T13:48:58;11.20;99.90
29203;DHT22;16245;51.170;4.884;2023-02-04T13:51:23;11.20;99.90
29203;DHT22;16245;51.170;4.884;2023-02-04T13:53:49;11.20;99.90
29203;DHT22;16245;51.170;4.884;2023-02-04T13:56:15;11.20;99.90
29203;DHT22;16245;51.170;4.884;2023-02-04T13:58:40;11.00;99.90
29203;DHT22;16245;51.170;4.884;2023-02-04T14:01:09;11.10;99.90
29203;DHT22;16245;51.170;4.884;2023-02-04T14:03:35;11.10;99.90
29203;DHT22;16245;51.170;4.884;2023-02-04T14:06:01;11.20;99.90
29203;DHT22;16245;51.170;4.884;2023-02-04T14:08:26;11.10;99.90
29203;DHT22;16245;51.170;4.884;2023-02-04T14:10:52;11.10;99.90
29203;DHT22;16245;51.170;4.884;2023-02-04T14:13:18;11.10;99.90
29203;DHT22;16245;51.170;4.884;2023-02-04T14:15:44;11.10;99.90
29203;DHT22;16245;51.170;4.884;2023-02-04T14:18:10;11.20;99.90
29203;DHT22;16245;51.170;4.884;2023-02-04T14:20:36;11.30;99.90
29203;DHT22;16245;51.170;4.884;2023-02-04T14:23:03;11.30;99.90
29203;DHT22;16245;51.170;4.884;2023-02-04T14:25:30;11.30;99.90
29203;DHT22;16245;51.170;4.884;2023-02-04T14:27:55;11.30;99.90
29203;DHT22;16245;51.170;4.884;2023-02-04T14:30:26;11.20;99.90
29203;DHT22;16245;51.170;4.884;2023-02-04T14:32:53;11.30;99.90
29203;DHT22;16245;51.170;4.884;2023-02-04T14:35:19;11.30;99.90
29203;DHT22;16245;51.170;4.884;2023-02-04T14:37:45;11.20;99.90
29203;DHT22;16245;51.170;4.884;2023-02-04T14:40:12;11.10;99.90
29203;DHT22;16245;51.170;4.884;2023-02-04T14:42:38;11.10;99.90
29203;DHT22;16245;51.170;4.884;2023-02-04T14:45:05;11.00;99.90
29203;DHT22;16245;51.170;4.884;2023-02-04T14:47:36;11.10;99.90
29203;DHT22;16245;51.170;4.884;2023-02-04T14:50:03;11.10;99.90
29203;DHT22;16245;51.170;4.884;2023-02-04T14:52:28;11.10;99.90
29203;DHT22;16245;51.170;4.884;2023-02-04T14:54:54;11.00;99.90
29203;DHT22;16245;51.170;4.884;2023-02-04T14:57:20;11.00;99.90
29203;DHT22;16245;51.170;4.884;2023-02-04T14:59:46;11.00;99.90
29203;DHT22;16245;51.170;4.884;2023-02-04T15:02:12;11.00;99.90
29203;DHT22;16245;51.170;4.884;2023-02-04T15:04:42;10.90;99.90
29203;DHT22;16245;51.170;4.884;2023-02-04T15:07:07;10.90;99.90
29203;DHT22;16245;51.170;4.884;2023-02-04T15:09:33;11.00;99.90
29203;DHT22;16245;51.170;4.884;2023-02-04T15:11:59;11.10;99.90
29203;DHT22;16245;51.170;4.884;2023-02-04T15:14:25;11.10;99.90
29203;DHT22;16245;51.170;4.884;2023-02-04T15:16:50;11.10;99.90
29203;DHT22;16245;51.170;4.884;2023-02-04T15:19:17;11.10;99.90
29203;DHT22;16245;51.170;4.884;2023-02-04T15:21:44;11.20;99.90
29203;DHT22;16245;51.170;4.884;2023-02-04T15:24:10;11.20;99.90
29203;DHT22;16245;51.170;4.884;2023-02-04T15:26:36;11.30;99.90
29203;DHT22;16245;51.170;4.884;2023-02-04T15:29:02;11.30;99.90
29203;DHT22;16245;51.170;4.884;2023-02-04T15:31:28;11.30;99.90
29203;DHT22;16245;51.170;4.884;2023-02-04T15:33:54;11.30;99.90
29203;DHT22;16245;51.170;4.884;2023-02-04T15:36:20;11.30;99.90
29203;DHT22;16245;51.170;4.884;2023-02-04T15:38:46;11.40;99.90
29203;DHT22;16245;51.170;4.884;2023-02-04T15:41:12;11.30;99.90
29203;DHT22;16245;51.170;4.884;2023-02-04T15:43:37;11.20;99.90
29203;DHT22;16245;51.170;4.884;2023-02-04T15:46:03;11.20;99.90
29203;DHT22;16245;51.170;4.884;2023-02-04T15:48:29;11.40;99.90
29203;DHT22;16245;51.170;4.884;2023-02-04T15:50:55;11.40;99.90
29203;DHT22;16245;51.170;4.884;2023-02-04T15:53:21;11.40;99.90
29203;DHT22;16245;51.170;4.884;2023-02-04T15:55:47;11.30;99.90